createdAt,value
2023-03-29T00:01:53.910Z,2.30
2023-03-29T00:04:56.806Z,2.00
2023-03-29T00:08:02.003Z,2.17
2023-03-29T00:11:04.043Z,1.80
2023-03-29T00:14:06.260Z,3.63
2023-03-29T00:17:08.065Z,2.60
2023-03-29T00:20:10.464Z,2.40
2023-03-29T00:23:12.168Z,1.83
2023-03-29T00:26:13.880Z,2.63
2023-03-29T00:29:15.674Z,2.00
2023-03-29T00:32:17.356Z,2.23
2023-03-29T00:35:19.913Z,2.30
2023-03-29T00:38:22.029Z,2.70
2023-03-29T00:41:23.668Z,2.00
2023-03-29T00:44:44.003Z,2.80
2023-03-29T00:47:51.117Z,2.10
2023-03-29T00:50:59.104Z,2.77
2023-03-29T00:54:02.408Z,2.00
2023-03-29T00:57:04.967Z,2.10
2023-03-29T01:00:10.206Z,2.00
2023-03-29T01:03:14.171Z,2.23
2023-03-29T01:06:17.224Z,2.20
2023-03-29T01:09:19.972Z,2.17
2023-03-29T01:12:29.557Z,2.20
2023-03-29T01:15:31.589Z,2.23
2023-03-29T01:18:33.747Z,2.13
2023-03-29T01:21:41.516Z,2.03
2023-03-29T01:24:57.683Z,2.20
2023-03-29T01:28:00.802Z,2.30
2023-03-29T01:31:08.429Z,2.40
2023-03-29T01:34:12.670Z,2.23
2023-03-29T01:37:18.007Z,2.03
2023-03-29T01:40:19.776Z,2.50
2023-03-29T01:43:21.432Z,2.30
2023-03-29T01:46:23.295Z,2.43
2023-03-29T01:49:34.506Z,2.77
2023-03-29T01:52:42.951Z,2.73
2023-03-29T01:55:52.793Z,2.50
2023-03-29T01:58:58.332Z,2.40
2023-03-29T02:02:01.606Z,2.53
2023-03-29T02:05:03.727Z,3.20
2023-03-29T02:08:07.711Z,2.67
2023-03-29T02:11:09.472Z,4.20
2023-03-29T02:14:11.289Z,3.10
2023-03-29T02:17:16.652Z,4.30
2023-03-29T02:20:22.543Z,3.00
2023-03-29T02:23:34.375Z,2.70
2023-03-29T02:26:36.255Z,3.20
2023-03-29T02:29:38.156Z,3.00
2023-03-29T02:32:45.648Z,2.73
2023-03-29T02:35:56.859Z,3.03
2023-03-29T02:39:00.120Z,3.23
2023-03-29T02:42:02.476Z,3.00
2023-03-29T02:45:05.064Z,2.13
2023-03-29T02:48:09.229Z,3.50
2023-03-29T02:51:20.265Z,3.47
2023-03-29T02:54:25.917Z,2.83
2023-03-29T02:57:28.736Z,3.40
2023-03-29T03:00:30.376Z,3.17
2023-03-29T03:03:32.132Z,3.07
2023-03-29T03:06:37.360Z,3.60
2023-03-29T03:09:40.282Z,3.17
2023-03-29T03:12:43.731Z,3.20
2023-03-29T03:15:49.125Z,3.23
2023-03-29T03:18:51.596Z,3.63
2023-03-29T03:21:53.262Z,3.30
2023-03-29T03:24:56.353Z,3.07
2023-03-29T03:27:58.524Z,3.70
2023-03-29T03:31:00.510Z,3.40
2023-03-29T03:34:40.163Z,2.63
2023-03-29T03:37:41.960Z,3.47
2023-03-29T03:40:44.512Z,3.00
2023-03-29T03:43:49.003Z,2.80
2023-03-29T03:46:51.551Z,3.57
2023-03-29T03:49:53.250Z,4.13
2023-03-29T03:52:58.661Z,4.10
2023-03-29T03:56:09.661Z,3.40
2023-03-29T03:59:31.684Z,4.13
2023-03-29T04:02:41.843Z,4.10
2023-03-29T04:05:44.688Z,4.00
2023-03-29T04:08:48.067Z,4.00
2023-03-29T04:12:02.225Z,4.40
2023-03-29T04:15:05.242Z,4.53
2023-03-29T04:18:07.849Z,4.60
2023-03-29T04:21:17.008Z,3.53
2023-03-29T04:24:20.003Z,4.20
2023-03-29T04:27:40.777Z,3.87
2023-03-29T04:30:50.788Z,4.67
2023-03-29T04:34:27.873Z,4.40
2023-03-29T04:37:31.662Z,4.40
2023-03-29T04:40:33.788Z,4.63
2023-03-29T04:43:47.710Z,4.53
2023-03-29T04:46:56.590Z,4.40
2023-03-29T04:50:22.876Z,4.37
2023-03-29T04:53:24.636Z,5.87
2023-03-29T04:56:27.175Z,5.20
2023-03-29T04:59:47.540Z,4.77
2023-03-29T05:03:15.299Z,5.40
2023-03-29T05:06:26.462Z,7.13
2023-03-29T05:09:28.411Z,7.17
2023-03-29T05:12:30.172Z,5.20
2023-03-29T05:15:32.111Z,23.80
2023-03-29T05:18:34.201Z,6.57
2023-03-29T05:21:36.261Z,4.20
2023-03-29T05:24:42.177Z,5.40
2023-03-29T05:27:48.872Z,4.30
2023-03-29T05:30:59.091Z,4.87
2023-03-29T05:34:01.019Z,3.37
2023-03-29T05:37:10.965Z,4.63
2023-03-29T05:40:22.973Z,3.87
2023-03-29T05:44:03.472Z,4.37
2023-03-29T05:47:06.791Z,5.00
2023-03-29T05:50:10.358Z,4.17
2023-03-29T05:53:12.889Z,3.20
2023-03-29T05:56:16.451Z,3.37
2023-03-29T05:59:19.843Z,2.70
2023-03-29T06:02:23.079Z,3.60
2023-03-29T06:05:27.666Z,3.70
2023-03-29T06:08:35.153Z,3.60
2023-03-29T06:12:09.338Z,3.53
2023-03-29T06:15:19.930Z,3.63
2023-03-29T06:18:25.007Z,3.87
2023-03-29T06:21:28.233Z,2.80
2023-03-29T06:24:30.585Z,2.60
2023-03-29T06:27:38.561Z,3.33
2023-03-29T06:30:41.949Z,3.70
2023-03-29T06:33:43.915Z,4.20
2023-03-29T06:36:58.189Z,3.20
2023-03-29T06:40:01.461Z,4.20
2023-03-29T06:43:10.618Z,5.33
2023-03-29T06:46:29.234Z,4.37
2023-03-29T06:49:34.856Z,3.77
2023-03-29T06:52:55.345Z,4.07
2023-03-29T06:55:58.307Z,4.00
2023-03-29T06:59:20.689Z,3.43
2023-03-29T07:02:32.474Z,4.47
2023-03-29T07:05:44.951Z,4.17
2023-03-29T07:08:52.408Z,8.83
2023-03-29T07:12:20.276Z,3.53
2023-03-29T07:15:22.176Z,4.17
2023-03-29T07:18:51.744Z,3.70
2023-03-29T07:22:14.303Z,6.50
2023-03-29T07:25:27.680Z,3.30
2023-03-29T07:28:34.171Z,2.90
2023-03-29T07:31:36.641Z,2.80
2023-03-29T07:35:01.060Z,4.07
2023-03-29T07:38:08.296Z,2.30
2023-03-29T07:41:12.333Z,3.40
2023-03-29T07:44:33.683Z,2.70
2023-03-29T07:47:36.736Z,2.60
2023-03-29T07:50:38.836Z,3.50
2023-03-29T07:53:41.215Z,3.23
2023-03-29T07:56:57.884Z,4.20
2023-03-29T08:00:15.759Z,3.80
2023-03-29T08:03:23.261Z,3.40
2023-03-29T08:06:27.092Z,2.53
2023-03-29T08:09:29.396Z,2.70
2023-03-29T08:12:31.270Z,3.10
2023-03-29T08:15:34.683Z,3.40
2023-03-29T08:18:36.731Z,3.33
2023-03-29T08:21:39.396Z,2.80
2023-03-29T08:24:41.650Z,2.57
2023-03-29T08:27:44.820Z,2.50
2023-03-29T08:30:49.796Z,2.37
2023-03-29T08:33:52.049Z,3.07
2023-03-29T08:37:12.196Z,3.40
2023-03-29T08:40:22.516Z,2.97
2023-03-29T08:43:56.444Z,3.13
2023-03-29T08:47:53.942Z,2.50
2023-03-29T08:50:59.515Z,2.87
2023-03-29T08:54:04.263Z,4.10
2023-03-29T08:57:27.219Z,3.27
2023-03-29T09:00:41.240Z,3.00
2023-03-29T09:03:46.368Z,2.83
2023-03-29T09:06:55.646Z,2.83
2023-03-29T09:10:02.116Z,2.37
2023-03-29T09:13:17.838Z,3.17
2023-03-29T09:16:32.089Z,2.53
2023-03-29T09:19:53.512Z,2.37
2023-03-29T09:23:18.403Z,2.93
2023-03-29T09:26:54.698Z,2.57
2023-03-29T09:30:25.805Z,3.03
2023-03-29T09:33:59.338Z,5.27
2023-03-29T09:37:22.021Z,2.73
2023-03-29T09:40:31.508Z,2.73
2023-03-29T09:43:45.990Z,4.47
2023-03-29T09:46:53.888Z,2.47
2023-03-29T09:50:31.078Z,3.20
2023-03-29T09:53:36.710Z,2.53
2023-03-29T09:56:52.828Z,2.73
2023-03-29T09:59:56.470Z,3.90
2023-03-29T10:02:58.977Z,3.33
2023-03-29T10:06:12.271Z,3.47
2023-03-29T10:09:23.156Z,4.97
2023-03-29T10:12:29.388Z,3.47
2023-03-29T10:15:31.668Z,3.80
2023-03-29T10:18:34.244Z,3.60
2023-03-29T10:21:37.315Z,3.00
2023-03-29T10:24:38.961Z,3.60
2023-03-29T10:27:42.410Z,4.00
2023-03-29T10:30:45.887Z,4.00
2023-03-29T10:33:54.695Z,3.40
2023-03-29T10:37:01.049Z,3.63
2023-03-29T10:40:03.927Z,4.57
2023-03-29T10:43:13.342Z,3.33
2023-03-29T10:46:19.461Z,3.37
2023-03-29T10:49:22.229Z,2.73
2023-03-29T10:52:24.049Z,3.43
2023-03-29T10:55:31.491Z,2.70
2023-03-29T10:58:49.521Z,3.50
2023-03-29T11:02:09.869Z,3.00
2023-03-29T11:05:27.978Z,3.77
2023-03-29T11:08:38.713Z,2.97
2023-03-29T11:11:41.298Z,3.77
2023-03-29T11:14:52.830Z,2.47
2023-03-29T11:18:00.903Z,3.57
2023-03-29T11:21:21.207Z,3.20
2023-03-29T11:24:41.705Z,3.00
2023-03-29T11:27:43.252Z,6.40
2023-03-29T11:30:48.414Z,2.90
2023-03-29T11:34:09.832Z,2.90
2023-03-29T11:37:30.291Z,3.60
2023-03-29T11:40:39.318Z,2.67
2023-03-29T11:43:44.231Z,3.47
2023-03-29T11:47:18.341Z,3.20
2023-03-29T11:50:23.373Z,2.73
2023-03-29T11:53:28.326Z,3.43
2023-03-29T11:56:36.685Z,3.53
2023-03-29T11:59:45.217Z,3.00
2023-03-29T12:03:05.459Z,3.40
2023-03-29T12:06:10.625Z,3.07
2023-03-29T12:09:24.463Z,3.70
2023-03-29T12:12:27.167Z,3.90
2023-03-29T12:15:31.834Z,3.50
2023-03-29T12:18:36.992Z,3.00
2023-03-29T12:21:40.594Z,3.60
2023-03-29T12:24:45.840Z,2.90
2023-03-29T12:28:10.105Z,3.60
2023-03-29T12:31:11.706Z,3.10
2023-03-29T12:34:19.620Z,3.27
2023-03-29T12:37:58.384Z,4.20
2023-03-29T12:41:20.145Z,2.70
2023-03-29T12:44:42.551Z,2.47
2023-03-29T12:47:55.360Z,2.33
2023-03-29T12:51:24.092Z,3.87
2023-03-29T12:54:28.437Z,3.17
2023-03-29T12:57:41.122Z,2.33
2023-03-29T13:00:44.901Z,3.30
2023-03-29T13:03:48.545Z,2.27
2023-03-29T13:07:03.020Z,3.07
2023-03-29T13:10:09.010Z,6.27
2023-03-29T13:13:18.954Z,4.37
2023-03-29T13:16:28.375Z,3.00
2023-03-29T13:19:34.321Z,3.10
2023-03-29T13:22:48.268Z,2.30
2023-03-29T13:25:53.045Z,2.90
2023-03-29T13:29:03.585Z,2.90
2023-03-29T13:32:27.216Z,2.63
2023-03-29T13:35:52.431Z,2.80
2023-03-29T13:38:54.454Z,3.47
2023-03-29T13:42:18.070Z,3.13
2023-03-29T13:45:22.598Z,3.67
2023-03-29T13:48:48.955Z,3.00
2023-03-29T13:51:53.846Z,4.07
2023-03-29T13:54:58.027Z,3.93
2023-03-29T13:58:02.698Z,2.53
2023-03-29T14:01:28.345Z,2.90
2023-03-29T14:04:38.020Z,3.90
2023-03-29T14:07:41.613Z,2.20
2023-03-29T14:10:44.740Z,3.20
2023-03-29T14:13:46.603Z,3.10
2023-03-29T14:16:48.530Z,2.77
2023-03-29T14:19:50.681Z,2.67
2023-03-29T14:22:53.096Z,2.27
2023-03-29T14:25:54.763Z,3.20
2023-03-29T14:28:57.420Z,2.40
2023-03-29T14:32:08.976Z,2.30
2023-03-29T14:35:11.061Z,3.10
2023-03-29T14:38:13.000Z,3.30
2023-03-29T14:41:14.741Z,2.60
2023-03-29T14:44:16.421Z,2.90
2023-03-29T14:47:28.595Z,4.27
2023-03-29T14:50:31.109Z,5.40
2023-03-29T14:53:34.528Z,5.60
2023-03-29T14:56:36.740Z,3.73
2023-03-29T14:59:40.901Z,4.10
2023-03-29T15:03:02.991Z,3.20
2023-03-29T15:06:05.468Z,2.10
2023-03-29T15:09:10.871Z,3.00
2023-03-29T15:12:15.012Z,3.03
2023-03-29T15:15:16.868Z,2.70
2023-03-29T15:18:19.275Z,2.90
2023-03-29T15:21:21.865Z,3.00
2023-03-29T15:24:28.585Z,4.00
2023-03-29T15:27:39.895Z,2.47
2023-03-29T15:30:47.771Z,2.60
2023-03-29T15:34:09.077Z,2.73
2023-03-29T15:37:11.542Z,4.90
2023-03-29T15:43:16.820Z,3.07
2023-03-29T15:46:18.554Z,2.83
2023-03-29T15:49:20.312Z,3.30
2023-03-29T15:52:22.281Z,2.90
2023-03-29T15:55:26.166Z,2.70
2023-03-29T15:58:29.077Z,4.07
2023-03-29T16:01:37.480Z,3.77
2023-03-29T16:04:39.372Z,3.50
2023-03-29T16:07:41.270Z,4.17
2023-03-29T16:10:44.007Z,4.33
2023-03-29T16:13:45.961Z,3.40
2023-03-29T16:16:47.744Z,10.70
2023-03-29T16:19:49.399Z,6.70
2023-03-29T16:22:51.428Z,5.10
2023-03-29T16:25:53.153Z,5.50
2023-03-29T16:28:54.871Z,5.63
2023-03-29T16:31:56.682Z,4.37
2023-03-29T16:34:58.470Z,5.73
2023-03-29T16:38:00.447Z,3.63
2023-03-29T16:41:02.065Z,3.80
2023-03-29T16:44:04.136Z,7.13
2023-03-29T16:47:05.854Z,7.70
2023-03-29T16:50:08.137Z,10.60
2023-03-29T16:53:10.505Z,7.93
2023-03-29T16:56:12.135Z,8.20
2023-03-29T16:59:14.060Z,14.03
2023-03-29T17:02:15.918Z,8.50
2023-03-29T17:05:18.184Z,17.37
2023-03-29T17:08:20.383Z,13.57
2023-03-29T17:11:23.385Z,11.33
2023-03-29T17:14:26.377Z,10.10
2023-03-29T17:17:28.747Z,7.63
2023-03-29T17:20:31.673Z,9.23
2023-03-29T17:23:33.421Z,10.23
2023-03-29T17:26:35.412Z,12.00
2023-03-29T17:29:37.037Z,13.40
2023-03-29T17:32:40.133Z,12.20
2023-03-29T17:35:43.042Z,12.40
2023-03-29T17:38:48.902Z,12.17
2023-03-29T17:41:50.670Z,11.73
2023-03-29T17:44:52.294Z,9.77
2023-03-29T17:47:54.017Z,10.40
2023-03-29T17:50:56.861Z,9.80
2023-03-29T17:53:58.581Z,12.13
2023-03-29T17:57:00.281Z,12.97
2023-03-29T18:00:02.033Z,14.70
2023-03-29T18:03:06.348Z,17.07
2023-03-29T18:06:08.812Z,14.57
2023-03-29T18:09:10.414Z,17.77
2023-03-29T18:12:12.517Z,16.53
2023-03-29T18:15:14.247Z,15.93
2023-03-29T18:18:15.936Z,13.10
2023-03-29T18:21:17.620Z,12.87
2023-03-29T18:24:19.252Z,13.40
2023-03-29T18:27:20.959Z,13.00
2023-03-29T18:30:22.674Z,11.93
2023-03-29T18:33:24.546Z,16.30
2023-03-29T18:36:26.784Z,21.17
2023-03-29T18:39:28.514Z,23.87
2023-03-29T18:42:30.751Z,46.93
2023-03-29T18:45:32.388Z,22.20
2023-03-29T18:48:41.155Z,31.40
2023-03-29T18:51:42.930Z,28.60
2023-03-29T18:54:44.692Z,48.37
2023-03-29T18:57:46.276Z,32.33
2023-03-29T19:00:47.834Z,44.10
2023-03-29T19:03:49.579Z,33.33
2023-03-29T19:06:51.893Z,31.97
2023-03-29T19:09:53.462Z,33.97
2023-03-29T19:12:55.069Z,42.63
2023-03-29T19:15:56.911Z,37.83
2023-03-29T19:18:58.527Z,42.40
2023-03-29T19:22:00.880Z,41.43
2023-03-29T19:25:03.138Z,35.30
2023-03-29T19:28:05.020Z,39.47
2023-03-29T19:31:07.184Z,32.87
2023-03-29T19:34:10.950Z,31.60
2023-03-29T19:37:12.874Z,28.47
2023-03-29T19:40:15.316Z,26.00
2023-03-29T19:43:17.022Z,27.00
2023-03-29T19:46:18.841Z,22.77
2023-03-29T19:49:20.416Z,21.47
2023-03-29T19:52:24.043Z,19.83
2023-03-29T19:55:26.832Z,27.50
2023-03-29T19:58:28.522Z,24.03
2023-03-29T20:01:32.333Z,24.73
2023-03-29T20:04:34.042Z,20.60
2023-03-29T20:07:36.016Z,22.23
2023-03-29T20:10:37.633Z,17.93
2023-03-29T20:13:41.463Z,16.33
2023-03-29T20:16:44.157Z,18.57
2023-03-29T20:19:45.949Z,17.40
2023-03-29T20:22:47.921Z,15.83
2023-03-29T20:25:49.562Z,15.23
2023-03-29T20:28:51.603Z,17.90
2023-03-29T20:31:53.385Z,15.93
2023-03-29T20:34:55.292Z,15.93
2023-03-29T20:37:56.912Z,16.00
2023-03-29T20:40:59.096Z,18.80
2023-03-29T20:44:03.031Z,14.50
2023-03-29T20:47:06.761Z,11.70
2023-03-29T20:50:09.562Z,12.70
2023-03-29T20:53:11.229Z,10.60
2023-03-29T20:56:13.207Z,12.30
2023-03-29T20:59:15.264Z,11.53
2023-03-29T21:02:19.020Z,11.80
2023-03-29T21:05:20.888Z,10.43
2023-03-29T21:08:22.724Z,13.30
2023-03-29T21:11:24.355Z,10.60
2023-03-29T21:14:26.764Z,13.97
2023-03-29T21:17:28.608Z,12.07
2023-03-29T21:20:30.230Z,9.37
2023-03-29T21:23:32.140Z,10.17
2023-03-29T21:26:34.273Z,9.37
2023-03-29T21:29:35.880Z,9.80
2023-03-29T21:32:37.592Z,10.37
2023-03-29T21:35:39.303Z,9.53
2023-03-29T21:38:40.931Z,9.67
2023-03-29T21:41:42.632Z,9.00
2023-03-29T21:44:44.470Z,11.40
2023-03-29T21:47:46.200Z,8.33
2023-03-29T21:50:51.168Z,11.33
2023-03-29T21:53:52.912Z,9.87
2023-03-29T21:56:54.585Z,9.13
2023-03-29T21:59:56.730Z,9.33
2023-03-29T22:02:58.360Z,10.40
2023-03-29T22:06:01.835Z,8.43
2023-03-29T22:09:03.602Z,7.23
2023-03-29T22:12:05.324Z,8.77
2023-03-29T22:15:07.885Z,9.10
2023-03-29T22:18:10.168Z,7.27
2023-03-29T22:21:14.396Z,7.87
2023-03-29T22:24:16.461Z,8.23
2023-03-29T22:27:18.193Z,7.63
2023-03-29T22:30:19.954Z,8.27
2023-03-29T22:33:21.665Z,7.43
2023-03-29T22:36:27.684Z,9.93
2023-03-29T22:39:29.874Z,8.30
2023-03-29T22:42:31.671Z,7.80
2023-03-29T22:45:33.358Z,7.97
2023-03-29T22:48:35.610Z,9.47
2023-03-29T22:51:37.355Z,8.70
2023-03-29T22:54:38.936Z,8.40
2023-03-29T22:57:40.864Z,8.67
2023-03-29T23:00:42.473Z,8.10
2023-03-29T23:03:44.144Z,9.07
2023-03-29T23:06:45.915Z,8.17
2023-03-29T23:09:47.526Z,8.20
2023-03-29T23:12:49.690Z,10.63
2023-03-29T23:15:52.635Z,8.10
2023-03-29T23:18:54.407Z,7.03
2023-03-29T23:21:55.995Z,7.53
2023-03-29T23:24:58.644Z,7.40
2023-03-29T23:28:00.303Z,9.30
2023-03-29T23:31:02.959Z,8.30
2023-03-29T23:34:05.477Z,8.00
2023-03-29T23:37:07.163Z,6.33
2023-03-29T23:40:14.018Z,5.03
2023-03-29T23:43:17.008Z,5.90
2023-03-29T23:46:19.082Z,7.77
2023-03-29T23:49:22.946Z,7.37
2023-03-29T23:52:24.840Z,8.83
2023-03-29T23:55:26.588Z,7.40
2023-03-29T23:58:28.657Z,9.40
